Time;durP1;ratioP1;P1;durP2;ratioP2;P2;SDS_P1;SDS_P2;PMS_P1;PMS_P2;Temp;Humidity;BMP_temperature;BMP_pressure;BME280_temperature;BME280_humidity;BME280_pressure;Samples;Min_cycle;Max_cycle;Signal;HPM_P1;HPM_P2
2021/07/13 06:26:21;;;;;;;5.37;4.87;;;19.30;99.90;;;;;;5850813;24;20504;-86
2021/07/13 06:28:52;;;;;;;4.80;4.40;;;19.30;99.90;;;;;;6103394;23;20916;-85
2021/07/13 06:31:54;;;;;;;;;;;;;;;;;;;;;
2021/07/13 06:34:32;;;;;;;5.10;4.70;;;19.40;99.90;;;;;;6171296;23;20410;-84
2021/07/13 06:37:05;;;;;;;4.33;3.90;;;19.40;99.90;;;;;;6172889;23;20383;-84
2021/07/13 06:40:00;;;;;;;3.60;3.40;;;19.50;99.90;;;;;;6172871;23;20449;-84
2021/07/13 06:42:29;;;;;;;3.30;3.10;;;19.60;99.90;;;;;;6166066;23;20769;-84
2021/07/13 06:44:59;;;;;;;3.57;3.37;;;19.60;99.90;;;;;;6170780;23;20463;-84
2021/07/13 06:47:40;;;;;;;3.47;3.27;;;19.70;99.90;;;;;;6172702;23;20403;-84
2021/07/13 06:50:09;;;;;;;3.07;2.87;;;19.70;99.90;;;;;;6172105;23;20701;-84
2021/07/13 06:52:47;;;;;;;3.80;3.40;;;19.70;99.90;;;;;;6172483;23;20493;-84
2021/07/13 06:55:17;;;;;;;3.13;2.87;;;19.70;99.90;;;;;;6172746;23;20426;-84
2021/07/13 06:57:49;;;;;;;3.10;2.90;;;19.70;99.90;;;;;;6172859;23;20402;-83
2021/07/13 07:03:11;;;;;;;5.33;3.53;;;19.70;99.90;;;;;;6159866;23;20429;-83
2021/07/13 07:05:43;;;;;;;3.97;3.63;;;19.80;99.90;;;;;;6174640;23;20418;-84
2021/07/13 07:08:33;;;;;;;2.90;2.70;;;19.70;99.90;;;;;;6209384;23;20487;-84
2021/07/13 07:11:11;;;;;;;2.40;2.20;;;19.70;99.90;;;;;;6225024;23;20422;-85
2021/07/13 07:14:06;;;;;;;4.67;2.13;;;19.60;99.90;;;;;;6224325;23;20401;-85
2021/07/13 07:16:56;;;;;;;2.47;2.27;;;19.60;99.90;;;;;;6214907;23;20455;-83
2021/07/13 07:23:09;;;;;;;3.63;3.30;;;19.50;99.90;;;;;;6204354;23;20423;-85
2021/07/13 07:29:13;;;;;;;2.70;2.50;;;19.40;99.90;;;;;;6177532;23;20843;-85
2021/07/13 07:31:52;;;;;;;;;;;;;;;;;;;;;
2021/07/13 07:34:26;;;;;;;3.10;2.80;;;19.30;99.90;;;;;;6218510;23;20444;-84
2021/07/13 07:37:08;;;;;;;3.90;3.60;;;19.30;99.90;;;;;;6221809;23;20436;-85
2021/07/13 07:39:50;;;;;;;6.87;3.20;;;19.20;99.90;;;;;;6222057;23;20411;-85
2021/07/13 07:42:20;;;;;;;5.63;3.33;;;19.20;99.90;;;;;;6226961;23;20404;-85
2021/07/13 07:44:51;;;;;;;4.47;4.07;;;19.20;99.90;;;;;;6221087;23;20416;-84
2021/07/13 07:47:28;;;;;;;4.30;3.90;;;19.20;99.90;;;;;;6219837;23;20396;-84
2021/07/13 07:50:02;;;;;;;3.50;3.30;;;19.10;99.90;;;;;;6218088;23;20937;-85
2021/07/13 07:52:29;;;;;;;3.40;3.20;;;19.10;99.90;;;;;;6216955;23;20422;-87
2021/07/13 07:55:56;;;;;;;6.43;5.83;;;19.10;99.90;;;;;;6221586;23;20441;-84
2021/07/13 07:58:59;;;;;;;4.90;4.50;;;19.00;99.90;;;;;;6104495;23;20420;-87
2021/07/13 09:12:21;;;;;;;2.87;2.67;;;18.70;99.90;;;;;;5831899;24;20440;-87
2021/07/13 09:14:55;;;;;;;1.00;0.90;;;18.60;99.90;;;;;;5837327;24;20442;-87
2021/07/13 10:25:45;;;;;;;;;;;;;;;;;;;;;
2021/07/13 13:33:24;;;;;;;0.80;0.70;;;18.60;99.90;;;;;;5885998;23;20445;-82
2021/07/13 13:46:18;;;;;;;0.80;0.80;;;18.60;99.90;;;;;;5884621;24;20431;-82
2021/07/13 13:48:50;;;;;;;1.63;0.70;;;18.50;99.90;;;;;;6086627;23;20576;-83
2021/07/13 13:51:17;;;;;;;0.80;0.60;;;18.40;99.90;;;;;;6176655;23;20409;-84
2021/07/13 13:53:44;;;;;;;0.70;0.70;;;18.40;99.90;;;;;;6205371;23;20419;-83
2021/07/13 13:59:33;;;;;;;0.93;0.73;;;18.70;99.90;;;;;;6192340;23;20360;-80
2021/07/13 14:02:00;;;;;;;1.43;0.73;;;18.80;99.90;;;;;;6188021;23;20408;-82
2021/07/13 14:04:30;;;;;;;2.20;0.83;;;18.90;99.90;;;;;;6188445;23;20750;-82
2021/07/13 14:06:57;;;;;;;0.70;0.70;;;19.00;99.90;;;;;;6188620;23;20650;-82
2021/07/13 14:09:23;;;;;;;0.87;0.87;;;19.10;99.90;;;;;;6188532;23;20982;-82
2021/07/13 14:11:50;;;;;;;1.20;1.10;;;19.30;99.90;;;;;;6188967;23;20410;-83
2021/07/13 14:14:17;;;;;;;2.60;1.30;;;19.40;99.90;;;;;;6189203;23;20418;-82
2021/07/13 14:16:45;;;;;;;1.17;1.07;;;19.50;99.90;;;;;;6187801;23;20436;-83
2021/07/13 14:19:11;;;;;;;2.80;0.70;;;19.60;99.90;;;;;;6188576;23;20482;-80
2021/07/13 14:21:41;;;;;;;1.30;1.20;;;19.60;99.90;;;;;;6188858;23;20437;-84
2021/07/13 14:24:46;;;;;;;0.97;0.97;;;19.60;99.90;;;;;;6186585;23;20905;-83
2021/07/13 14:38:01;;;;;;;0.80;0.80;;;19.10;99.90;;;;;;5844252;24;20407;-83
2021/07/13 14:40:28;;;;;;;0.83;0.83;;;19.00;99.90;;;;;;5943688;23;20911;-83
2021/07/13 14:42:55;;;;;;;0.87;0.87;;;18.90;99.90;;;;;;6136405;23;20417;-83
2021/07/13 14:45:22;;;;;;;1.00;0.90;;;18.90;99.90;;;;;;6186519;23;20443;-83
2021/07/13 14:47:49;;;;;;;0.90;0.90;;;18.80;99.90;;;;;;6185937;23;20401;-83
2021/07/13 14:50:16;;;;;;;1.03;1.03;;;18.80;99.90;;;;;;6186293;23;20445;-83
2021/07/13 14:52:46;;;;;;;1.10;1.00;;;18.60;99.90;;;;;;6187591;23;20736;-83
2021/07/13 14:58:38;;;;;;;1.60;0.70;;;18.50;99.90;;;;;;6048397;23;20411;-82
2021/07/13 15:01:05;;;;;;;0.83;0.83;;;18.50;99.90;;;;;;6172054;23;20509;-83
2021/07/13 15:03:32;;;;;;;1.13;1.00;;;18.60;99.90;;;;;;6186593;23;20748;-83
2021/07/13 15:05:58;;;;;;;0.83;0.83;;;18.70;99.90;;;;;;6186705;23;20743;-83
2021/07/13 15:08:26;;;;;;;0.87;0.80;;;18.80;99.90;;;;;;6185480;23;20412;-83
2021/07/13 15:10:54;;;;;;;1.53;1.23;;;18.90;99.90;;;;;;6187483;23;20444;-83
2021/07/13 15:13:21;;;;;;;1.30;1.20;;;19.00;99.90;;;;;;6187210;23;20436;-83
2021/07/13 15:15:50;;;;;;;2.30;1.37;;;19.10;99.90;;;;;;6186491;23;20471;-82
2021/07/13 15:18:17;;;;;;;0.90;0.90;;;19.10;99.90;;;;;;6186632;23;20916;-82
2021/07/13 15:20:44;;;;;;;1.27;1.00;;;19.20;99.90;;;;;;6187238;23;20412;-82
2021/07/13 15:23:11;;;;;;;1.37;1.10;;;19.30;99.90;;;;;;6187048;23;20413;-82
2021/07/13 15:25:38;;;;;;;0.90;0.90;;;19.20;99.90;;;;;;6195627;23;20450;-82
2021/07/13 15:28:06;;;;;;;1.27;1.17;;;19.20;99.90;;;;;;6217549;23;20408;-82
2021/07/13 15:30:34;;;;;;;1.10;1.00;;;19.20;99.90;;;;;;6216407;23;20454;-82
2021/07/13 15:33:58;;;;;;;2.50;1.17;;;19.20;99.90;;;;;;6216434;23;20423;-84
2021/07/13 15:36:30;;;;;;;1.83;0.83;;;19.30;99.90;;;;;;6172651;23;20428;-83
2021/07/13 15:39:28;;;;;;;0.90;0.70;;;19.30;99.90;;;;;;6219003;23;20409;-83
2021/07/13 15:55:35;;;;;;;0.63;0.63;;;18.90;99.90;;;;;;6010555;23;20805;-85
2021/07/13 15:58:16;;;;;;;0.77;0.77;;;18.70;99.90;;;;;;6011580;23;20507;-85
2021/07/13 16:00:47;;;;;;;1.30;1.20;;;18.60;99.90;;;;;;6189511;23;20407;-83
2021/07/13 16:03:39;;;;;;;0.80;0.80;;;18.40;99.90;;;;;;6218469;23;20416;-83
2021/07/13 16:09:53;;;;;;;1.20;0.73;;;18.30;99.90;;;;;;6185741;23;20511;-82
2021/07/13 16:13:06;;;;;;;1.50;1.00;;;18.30;99.90;;;;;;6217731;23;20974;-84
2021/07/13 16:15:33;;;;;;;1.37;1.27;;;18.40;99.90;;;;;;6216671;23;20454;-81
2021/07/13 16:18:00;;;;;;;2.83;0.90;;;18.50;99.90;;;;;;6217231;23;20400;-81
2021/07/13 16:20:32;;;;;;;1.40;0.90;;;18.50;99.90;;;;;;6217937;23;20400;-80
2021/07/13 16:23:07;;;;;;;1.20;1.07;;;18.60;99.90;;;;;;6216440;23;20404;-80
2021/07/13 16:25:53;;;;;;;1.03;1.00;;;18.60;99.90;;;;;;6216485;23;20440;-80
2021/07/13 16:28:28;;;;;;;1.00;1.00;;;18.60;99.90;;;;;;6215922;23;20420;-80
2021/07/13 16:31:25;;;;;;;;;;;;;;;;;;;;;
2021/07/13 16:34:19;;;;;;;;;;;;;;;;;;;;;
2021/07/13 16:37:21;;;;;;;1.13;0.93;;;18.90;99.90;;;;;;6214810;23;20512;-82
2021/07/13 16:40:08;;;;;;;1.00;0.90;;;19.10;99.90;;;;;;6192258;23;20424;-83
2021/07/13 16:42:58;;;;;;;1.00;0.90;;;19.30;99.90;;;;;;6164867;23;20404;-82
2021/07/13 16:45:35;;;;;;;1.83;1.20;;;19.50;99.90;;;;;;6217378;23;20425;-80
2021/07/13 16:48:13;;;;;;;0.80;0.70;;;19.70;99.90;;;;;;6217504;23;20389;-80
2021/07/13 16:50:42;;;;;;;0.83;0.83;;;19.90;99.90;;;;;;6217949;23;20435;-82
2021/07/13 16:53:11;;;;;;;0.80;0.80;;;20.20;99.90;;;;;;6216324;23;20406;-82
2021/07/13 16:55:38;;;;;;;1.23;0.90;;;20.60;99.90;;;;;;6216640;23;20949;-82
2021/07/13 16:58:13;;;;;;;0.93;0.83;;;21.00;99.90;;;;;;6217427;23;20403;-81
2021/07/13 17:01:08;;;;;;;1.53;1.10;;;21.70;99.90;;;;;;6218634;23;20418;-82
2021/07/13 17:03:34;;;;;;;1.47;1.37;;;22.90;99.90;;;;;;6217716;23;20420;-79
2021/07/13 17:06:42;;;;;;;0.80;0.80;;;23.80;99.90;;;;;;6220495;23;20525;-84
2021/07/13 17:49:45;;;;;;;0.50;0.50;;;21.90;99.90;;;;;;5874856;24;20398;-83
2021/07/13 18:13:11;;;;;;;0.90;0.90;;;22.40;99.90;;;;;;5796192;24;20490;-81
2021/07/13 18:15:41;;;;;;;1.97;1.77;;;22.70;99.90;;;;;;6005527;23;20441;-80
2021/07/13 18:18:07;;;;;;;1.10;1.00;;;22.90;99.90;;;;;;6070943;23;20927;-82
2021/07/13 18:20:34;;;;;;;1.50;1.00;;;23.00;99.40;;;;;;6164527;23;20460;-81
2021/07/13 18:23:01;;;;;;;1.47;1.00;;;23.00;99.50;;;;;;6222341;23;20419;-81
2021/07/13 18:25:28;;;;;;;1.13;0.87;;;23.10;99.20;;;;;;6222506;23;20429;-82
2021/07/13 18:27:56;;;;;;;0.93;0.93;;;23.20;98.50;;;;;;6222763;23;20413;-82
2021/07/13 18:30:26;;;;;;;1.13;0.57;;;23.40;98.70;;;;;;6222355;23;20441;-81
2021/07/13 18:32:54;;;;;;;1.43;1.00;;;23.50;98.70;;;;;;6221249;23;20409;-82
2021/07/13 18:35:21;;;;;;;0.90;0.90;;;23.50;98.60;;;;;;6220900;23;20429;-82
2021/07/13 18:37:47;;;;;;;1.10;0.80;;;23.40;98.40;;;;;;6221767;23;20431;-80
2021/07/13 18:40:15;;;;;;;2.00;1.57;;;23.20;98.30;;;;;;6222857;23;20411;-83
2021/07/13 18:42:41;;;;;;;0.93;0.90;;;22.90;99.10;;;;;;6221799;23;20429;-82
2021/07/13 18:45:09;;;;;;;0.93;0.93;;;22.60;98.80;;;;;;6221417;23;20448;-82
2021/07/13 18:47:36;;;;;;;0.80;0.80;;;22.20;99.50;;;;;;6221271;23;20415;-82
2021/07/13 18:50:08;;;;;;;1.23;1.13;;;21.90;99.90;;;;;;6221512;23;20442;-82
2021/07/13 18:52:35;;;;;;;1.40;1.03;;;21.60;99.90;;;;;;6219987;23;20395;-84
2021/07/13 19:44:13;;;;;;;1.50;1.40;;;18.00;99.90;;;;;;6280995;22;20444;-84
2021/07/13 19:51:14;;;;;;;2.03;1.70;;;17.70;99.90;;;;;;6153903;23;20992;-85
